KQBL

Hurlbert

Hurlbert, Florida, USA
METAR KQBL 220355Z AUTO 08001KT 10SM CLR 08/01 A3038 RMK AO2 SLP286 WND DATA ESTMD T00820007
Observed Flight Rules
Jan-22 @ 03:55 UTC (23 minutes ago) Visual Flight Rules
Wind Visibility Clouds
80° at 1 knots 10 miles
  • Clear skies
Temperatures Readings
Current 8°C / 46°F
Dewpoint 1°C / 34°F
Humidity 62%
Altimeter 30.38" Hg
Pressure 1028.6 hPa
METAR KQBL 220355Z AUTO 08001KT 10SM CLR 08/01 A3038 RMK AO2 SLP286 WND DATA ESTMD T00820007
Observed Flight Rules
Jan-22 @ 03:55 UTC
(23 minutes ago)
VFR
Wind Visibility
80° at 1 knots 10 miles
Clouds
  • Clear skies
Temperature Dewpoint
8°C / 46°F 1°C / 34°F
Humidity Altimeter Pressure
62% 30.38" Hg 1028.6 hPa